createdAt,value
2022-10-04T00:01:51.284Z,8.38
2022-10-04T00:04:29.140Z,8.36
2022-10-04T00:07:06.786Z,8.33
2022-10-04T00:09:41.554Z,8.32
2022-10-04T00:12:23.162Z,8.28
2022-10-04T00:14:51.944Z,8.24
2022-10-04T00:17:27.501Z,8.20
2022-10-04T00:19:55.524Z,8.17
2022-10-04T00:22:33.058Z,8.16
2022-10-04T00:25:02.934Z,8.16
2022-10-04T00:27:29.651Z,8.14
2022-10-04T00:30:02.497Z,8.11
2022-10-04T00:32:29.053Z,8.10
2022-10-04T00:34:56.948Z,8.05
2022-10-04T00:37:25.618Z,8.01
2022-10-04T00:40:12.236Z,8.02
2022-10-04T00:42:49.215Z,7.98
2022-10-04T00:45:24.045Z,7.94
2022-10-04T00:48:02.960Z,7.90
2022-10-04T00:50:35.394Z,7.86
2022-10-04T00:53:10.946Z,7.82
2022-10-04T00:55:47.074Z,7.79
2022-10-04T00:58:29.325Z,7.77
2022-10-04T01:00:57.580Z,7.74
2022-10-04T01:03:34.727Z,7.73
2022-10-04T01:06:06.312Z,7.71
2022-10-04T01:08:38.509Z,7.72
2022-10-04T01:11:13.512Z,7.67
2022-10-04T01:13:45.804Z,7.63
2022-10-04T01:16:22.131Z,7.59
2022-10-04T01:18:48.875Z,7.57
2022-10-04T01:21:24.348Z,7.53
2022-10-04T01:24:01.078Z,7.52
2022-10-04T01:26:33.427Z,7.50
2022-10-04T01:29:07.556Z,7.47
2022-10-04T01:31:37.109Z,7.44
2022-10-04T01:34:05.643Z,7.41
2022-10-04T01:36:37.042Z,7.39
2022-10-04T01:39:04.526Z,7.34
2022-10-04T01:41:46.384Z,7.32
2022-10-04T01:44:48.540Z,7.30
2022-10-04T01:47:26.835Z,7.28
2022-10-04T01:49:55.614Z,7.26
2022-10-04T01:52:28.871Z,7.26
2022-10-04T01:55:14.729Z,7.25
2022-10-04T01:57:52.926Z,7.22
2022-10-04T02:00:22.127Z,7.22
2022-10-04T02:03:03.997Z,7.18
2022-10-04T02:05:35.896Z,7.18
2022-10-04T02:08:05.845Z,7.16
2022-10-04T02:10:41.021Z,7.16
2022-10-04T02:13:14.005Z,7.15
2022-10-04T02:15:40.841Z,7.13
2022-10-04T02:18:13.327Z,7.12
2022-10-04T02:20:42.006Z,7.12
2022-10-04T02:23:10.562Z,7.11
2022-10-04T02:25:38.421Z,7.09
2022-10-04T02:28:10.873Z,7.07
2022-10-04T02:30:39.572Z,7.05
2022-10-04T02:33:06.690Z,7.03
2022-10-04T02:35:36.423Z,6.99
2022-10-04T02:38:06.825Z,6.99
2022-10-04T02:40:55.159Z,6.99
2022-10-04T02:43:48.562Z,6.97
2022-10-04T02:46:24.815Z,6.96
2022-10-04T02:49:05.933Z,6.95
2022-10-04T02:51:46.532Z,6.92
2022-10-04T02:54:19.380Z,6.91
2022-10-04T02:56:53.509Z,6.88
2022-10-04T02:59:21.474Z,6.87
2022-10-04T03:02:00.516Z,6.87
2022-10-04T03:04:40.078Z,6.85
2022-10-04T03:07:09.632Z,6.85
2022-10-04T03:09:38.280Z,6.85
2022-10-04T03:12:09.007Z,6.81
2022-10-04T03:14:40.483Z,6.78
2022-10-04T03:17:10.054Z,6.74
2022-10-04T03:19:38.350Z,6.72
2022-10-04T03:22:09.714Z,6.73
2022-10-04T03:24:56.450Z,6.71
2022-10-04T03:27:35.108Z,6.66
2022-10-04T03:30:02.055Z,6.64
2022-10-04T03:32:30.745Z,6.62
2022-10-04T03:35:00.134Z,6.59
2022-10-04T03:37:29.470Z,6.57
2022-10-04T03:39:58.119Z,6.57
2022-10-04T03:42:36.428Z,6.53
2022-10-04T03:45:17.139Z,6.49
2022-10-04T03:47:48.653Z,6.45
2022-10-04T03:50:22.210Z,6.39
2022-10-04T03:52:54.840Z,6.36
2022-10-04T03:55:25.503Z,6.33
2022-10-04T03:57:52.581Z,6.31
2022-10-04T04:00:22.720Z,6.29
2022-10-04T04:03:00.499Z,6.24
2022-10-04T04:05:47.644Z,6.23
2022-10-04T04:08:25.205Z,6.22
2022-10-04T04:10:55.650Z,6.22
2022-10-04T04:13:48.684Z,6.22
2022-10-04T04:16:15.658Z,6.22
2022-10-04T04:18:46.233Z,6.21
2022-10-04T04:21:18.874Z,6.23
2022-10-04T04:23:58.131Z,6.23
2022-10-04T04:26:36.897Z,6.24
2022-10-04T04:29:22.446Z,6.24
2022-10-04T04:32:10.573Z,6.26
2022-10-04T04:34:53.339Z,6.28
2022-10-04T04:37:20.983Z,6.26
2022-10-04T04:39:55.397Z,6.25
2022-10-04T04:42:34.839Z,6.24
2022-10-04T04:45:14.306Z,6.22
2022-10-04T04:47:49.172Z,6.22
2022-10-04T04:50:21.812Z,6.18
2022-10-04T04:53:01.518Z,6.14
2022-10-04T04:55:50.080Z,6.09
2022-10-04T04:58:36.268Z,6.09
2022-10-04T05:01:42.774Z,6.09
2022-10-04T05:04:09.502Z,6.09
2022-10-04T05:06:41.013Z,6.11
2022-10-04T05:09:23.479Z,6.12
2022-10-04T05:11:52.592Z,6.13
2022-10-04T05:14:19.989Z,6.13
2022-10-04T05:16:55.167Z,6.12
2022-10-04T05:19:31.195Z,6.10
2022-10-04T05:22:07.072Z,6.11
2022-10-04T05:24:39.367Z,6.10
2022-10-04T05:27:16.746Z,6.11
2022-10-04T05:30:21.918Z,6.14
2022-10-04T05:33:01.132Z,6.14
2022-10-04T05:35:29.581Z,6.13
2022-10-04T05:38:26.755Z,6.13
2022-10-04T05:41:18.795Z,6.11
2022-10-04T05:43:51.646Z,6.13
2022-10-04T05:46:33.485Z,6.16
2022-10-04T05:49:22.305Z,6.19
2022-10-04T05:52:15.889Z,6.21
2022-10-04T05:54:42.681Z,6.24
2022-10-04T05:57:53.885Z,6.29
2022-10-04T06:00:21.895Z,6.33
2022-10-04T06:03:06.238Z,6.37
2022-10-04T06:05:55.398Z,6.42
2022-10-04T06:08:48.118Z,6.46
2022-10-04T06:11:32.715Z,6.51
2022-10-04T06:14:33.527Z,6.52
2022-10-04T06:17:21.430Z,6.57
2022-10-04T06:20:10.209Z,6.61
2022-10-04T06:22:47.441Z,6.63
2022-10-04T06:25:31.497Z,6.64
2022-10-04T06:28:17.362Z,6.68
2022-10-04T06:31:11.692Z,6.71
2022-10-04T06:33:47.451Z,6.77
2022-10-04T06:36:55.634Z,6.83
2022-10-04T06:39:53.386Z,6.89
2022-10-04T06:42:50.810Z,6.95
2022-10-04T06:45:43.608Z,7.01
2022-10-04T06:48:50.569Z,7.06
2022-10-04T06:51:57.328Z,7.11
2022-10-04T06:54:23.863Z,7.15
2022-10-04T06:57:00.820Z,7.18
2022-10-04T06:59:48.869Z,7.24
2022-10-04T07:02:24.797Z,7.30
2022-10-04T07:05:12.380Z,7.36
2022-10-04T07:07:44.974Z,7.43
2022-10-04T07:10:35.167Z,7.50
2022-10-04T07:13:04.762Z,7.56
2022-10-04T07:15:45.222Z,7.60
2022-10-04T07:18:24.098Z,7.66
2022-10-04T07:21:01.300Z,7.72
2022-10-04T07:23:34.134Z,7.80
2022-10-04T07:26:19.710Z,7.87
2022-10-04T07:29:13.933Z,7.96
2022-10-04T07:31:42.799Z,8.05
2022-10-04T07:34:30.854Z,8.15
2022-10-04T07:37:03.297Z,8.24
2022-10-04T07:39:33.392Z,8.34
2022-10-04T07:42:31.691Z,8.42
2022-10-04T07:45:10.743Z,8.49
2022-10-04T07:47:37.648Z,8.60
2022-10-04T07:50:27.766Z,8.71
2022-10-04T07:53:09.166Z,8.81
2022-10-04T07:56:02.615Z,8.91
2022-10-04T07:59:07.221Z,9.01
2022-10-04T08:02:03.887Z,9.13
2022-10-04T08:04:56.244Z,9.21
2022-10-04T08:07:32.547Z,9.29
2022-10-04T08:10:08.607Z,9.36
2022-10-04T08:12:52.632Z,9.45
2022-10-04T08:15:43.081Z,9.54
2022-10-04T08:18:15.569Z,9.56
2022-10-04T08:20:55.590Z,9.61
2022-10-04T08:23:32.594Z,9.64
2022-10-04T08:26:08.103Z,9.69
2022-10-04T08:29:16.931Z,9.74
2022-10-04T08:32:08.405Z,9.83
2022-10-04T08:34:34.977Z,9.92
2022-10-04T08:37:24.727Z,10.01
2022-10-04T08:40:10.811Z,10.11
2022-10-04T08:42:57.746Z,10.19
2022-10-04T08:46:04.133Z,10.26
2022-10-04T08:48:44.712Z,10.35
2022-10-04T08:51:20.104Z,10.43
2022-10-04T08:54:24.789Z,10.52
2022-10-04T08:57:16.319Z,10.62
2022-10-04T09:00:04.334Z,10.71
2022-10-04T09:02:41.602Z,10.81
2022-10-04T09:05:36.375Z,10.88
2022-10-04T09:08:35.107Z,10.96
2022-10-04T09:11:11.079Z,11.03
2022-10-04T09:13:56.011Z,11.12
2022-10-04T09:16:46.630Z,11.21
2022-10-04T09:19:22.936Z,11.30
2022-10-04T09:22:16.213Z,11.41
2022-10-04T09:25:21.405Z,11.51
2022-10-04T09:28:12.574Z,11.61
2022-10-04T09:30:57.649Z,11.74
2022-10-04T09:33:33.374Z,11.84
2022-10-04T09:36:11.178Z,11.93
2022-10-04T09:38:43.899Z,12.01
2022-10-04T09:41:47.426Z,12.10
2022-10-04T09:44:35.414Z,12.22
2022-10-04T09:47:37.920Z,12.31
2022-10-04T09:50:37.369Z,12.40
2022-10-04T09:53:28.335Z,12.49
2022-10-04T09:56:05.587Z,12.53
2022-10-04T09:58:53.375Z,12.61
2022-10-04T10:01:41.571Z,12.67
2022-10-04T10:04:23.383Z,12.71
2022-10-04T10:07:27.434Z,12.75
2022-10-04T10:10:33.845Z,12.79
2022-10-04T10:13:37.663Z,12.83
2022-10-04T10:16:33.747Z,12.87
2022-10-04T10:19:16.372Z,12.94
2022-10-04T10:22:17.160Z,13.01
2022-10-04T10:25:02.805Z,13.08
2022-10-04T10:27:41.310Z,13.12
2022-10-04T10:30:25.608Z,13.15
2022-10-04T10:33:07.685Z,13.19
2022-10-04T10:35:56.717Z,13.22
2022-10-04T10:38:31.341Z,13.26
2022-10-04T10:41:27.577Z,13.32
2022-10-04T10:44:08.118Z,13.38
2022-10-04T10:47:03.272Z,13.48
2022-10-04T10:50:03.105Z,13.55
2022-10-04T10:52:38.409Z,13.63
2022-10-04T10:55:29.498Z,13.66
2022-10-04T10:58:32.081Z,13.74
2022-10-04T11:01:09.742Z,13.82
2022-10-04T11:03:43.487Z,13.91
2022-10-04T11:06:32.356Z,13.98
2022-10-04T11:09:34.465Z,14.06
2022-10-04T11:12:49.024Z,14.14
2022-10-04T11:15:33.125Z,14.17
2022-10-04T11:18:09.215Z,14.22
2022-10-04T11:20:53.746Z,14.29
2022-10-04T11:23:29.057Z,14.31
2022-10-04T11:26:10.886Z,14.32
2022-10-04T11:28:46.548Z,14.32
2022-10-04T11:31:51.795Z,14.38
2022-10-04T11:34:51.365Z,14.40
2022-10-04T11:37:29.231Z,14.35
2022-10-04T11:40:13.751Z,14.31
2022-10-04T11:42:43.297Z,14.29
2022-10-04T11:45:19.493Z,14.30
2022-10-04T11:48:14.040Z,14.29
2022-10-04T11:51:18.591Z,14.24
2022-10-04T11:54:24.391Z,14.18
2022-10-04T11:57:17.266Z,14.14
2022-10-04T12:00:05.134Z,14.11
2022-10-04T12:03:05.565Z,14.12
2022-10-04T12:06:14.268Z,14.11
2022-10-04T12:08:53.992Z,14.13
2022-10-04T12:12:30.218Z,14.12
2022-10-04T12:15:08.394Z,14.12
2022-10-04T12:18:21.866Z,14.14
2022-10-04T12:20:48.638Z,14.14
2022-10-04T12:23:54.084Z,14.16
2022-10-04T12:26:23.723Z,14.18
2022-10-04T12:29:05.683Z,14.16
2022-10-04T12:31:37.182Z,14.15
2022-10-04T12:34:14.720Z,14.16
2022-10-04T12:37:07.052Z,14.17
2022-10-04T12:39:42.557Z,14.18
2022-10-04T12:42:28.103Z,14.22
2022-10-04T12:45:22.102Z,14.22
2022-10-04T12:47:48.752Z,14.23
2022-10-04T12:50:37.157Z,14.23
2022-10-04T12:53:34.727Z,14.20
2022-10-04T12:56:38.059Z,14.18
2022-10-04T12:59:22.535Z,14.18
2022-10-04T13:02:40.157Z,14.19
2022-10-04T13:05:26.739Z,14.18
2022-10-04T13:08:37.891Z,14.18
2022-10-04T13:11:31.961Z,14.17
2022-10-04T13:14:01.699Z,14.16
2022-10-04T13:19:52.825Z,14.17
2022-10-04T13:22:56.845Z,14.16
2022-10-04T13:25:52.260Z,14.14
2022-10-04T13:28:54.837Z,14.11
2022-10-04T13:31:24.526Z,14.09
2022-10-04T13:33:58.211Z,14.10
2022-10-04T13:36:28.455Z,14.10
2022-10-04T13:39:21.806Z,14.09
2022-10-04T13:42:12.667Z,14.12
2022-10-04T13:44:57.553Z,14.11
2022-10-04T13:48:01.789Z,14.10
2022-10-04T13:50:55.850Z,14.08
2022-10-04T13:54:09.631Z,14.06
2022-10-04T13:56:48.613Z,14.03
2022-10-04T13:59:36.740Z,14.04
2022-10-04T14:02:40.841Z,14.05
2022-10-04T14:05:32.297Z,14.04
2022-10-04T14:08:36.861Z,14.04
2022-10-04T14:11:28.432Z,14.04
2022-10-04T14:14:01.827Z,14.04
2022-10-04T14:16:56.178Z,14.05
2022-10-04T14:20:01.415Z,14.06
2022-10-04T14:22:33.935Z,14.09
2022-10-04T14:25:31.065Z,14.09
2022-10-04T14:28:26.228Z,14.10
2022-10-04T14:31:20.250Z,14.08
2022-10-04T14:34:25.505Z,14.07
2022-10-04T14:37:32.587Z,14.08
2022-10-04T14:40:27.142Z,14.10
2022-10-04T14:43:31.377Z,14.11
2022-10-04T14:46:39.124Z,14.14
2022-10-04T14:50:00.208Z,14.10
2022-10-04T14:52:55.736Z,14.07
2022-10-04T14:55:40.995Z,14.03
2022-10-04T14:58:45.964Z,14.00
2022-10-04T15:01:28.261Z,13.95
2022-10-04T15:04:29.184Z,13.91
2022-10-04T15:07:03.576Z,13.85
2022-10-04T15:09:56.229Z,13.79
2022-10-04T15:12:52.050Z,13.77
2022-10-04T15:15:18.704Z,13.72
2022-10-04T15:17:48.367Z,13.70
2022-10-04T15:20:26.279Z,13.68
2022-10-04T15:23:06.494Z,13.66
2022-10-04T15:25:47.447Z,13.63
2022-10-04T15:28:49.260Z,13.59
2022-10-04T15:31:41.505Z,13.56
2022-10-04T15:34:20.054Z,13.52
2022-10-04T15:37:14.009Z,13.47
2022-10-04T15:40:03.923Z,13.46
2022-10-04T15:42:36.231Z,13.41
2022-10-04T15:45:17.724Z,13.35
2022-10-04T15:48:02.725Z,13.30
2022-10-04T15:51:02.903Z,13.25
2022-10-04T15:54:03.474Z,13.20
2022-10-04T15:56:36.061Z,13.14
2022-10-04T15:59:34.728Z,13.09
2022-10-04T16:02:49.339Z,13.03
2022-10-04T16:05:37.789Z,12.95
2022-10-04T16:08:32.130Z,12.86
2022-10-04T16:11:36.403Z,12.80
2022-10-04T16:14:31.231Z,12.74
2022-10-04T16:17:22.533Z,12.70
2022-10-04T16:19:56.305Z,12.65
2022-10-04T16:22:39.880Z,12.63
2022-10-04T16:25:28.050Z,12.60
2022-10-04T16:27:57.747Z,12.56
2022-10-04T16:30:47.819Z,12.51
2022-10-04T16:33:32.471Z,12.49
2022-10-04T16:36:10.109Z,12.46
2022-10-04T16:39:04.165Z,12.44
2022-10-04T16:41:40.211Z,12.45
2022-10-04T16:44:27.166Z,12.43
2022-10-04T16:46:58.854Z,12.38
2022-10-04T16:49:44.653Z,12.36
2022-10-04T16:52:32.329Z,12.36
2022-10-04T16:55:25.396Z,12.32
2022-10-04T16:58:37.654Z,12.29
2022-10-04T17:01:26.192Z,12.22
2022-10-04T17:04:02.975Z,12.21
2022-10-04T17:06:54.754Z,12.19
2022-10-04T17:10:05.157Z,12.18
2022-10-04T17:16:42.193Z,12.20
2022-10-04T17:19:53.312Z,12.23
2022-10-04T17:22:58.814Z,12.27
2022-10-04T17:25:43.041Z,12.28
2022-10-04T17:28:30.254Z,12.30
2022-10-04T17:31:06.127Z,12.31
2022-10-04T17:33:53.807Z,12.32
2022-10-04T17:36:30.751Z,12.35
2022-10-04T17:39:12.605Z,12.35
2022-10-04T17:42:27.452Z,12.36
2022-10-04T17:44:57.044Z,12.36
2022-10-04T17:48:03.298Z,12.37
2022-10-04T17:50:58.981Z,12.37
2022-10-04T17:53:49.045Z,12.38
2022-10-04T17:56:29.838Z,12.37
2022-10-04T17:58:59.362Z,12.40
2022-10-04T18:01:33.648Z,12.39
2022-10-04T18:04:08.946Z,12.41
2022-10-04T18:06:47.964Z,12.40
2022-10-04T18:09:39.932Z,12.42
2022-10-04T18:12:29.764Z,12.43
2022-10-04T18:15:27.128Z,12.45
2022-10-04T18:18:12.582Z,12.45
2022-10-04T18:20:56.385Z,12.45
2022-10-04T18:23:27.410Z,12.46
2022-10-04T18:26:17.686Z,12.46
2022-10-04T18:28:45.798Z,12.46
2022-10-04T18:31:30.873Z,12.48
2022-10-04T18:34:04.319Z,12.48
2022-10-04T18:36:50.979Z,12.49
2022-10-04T18:39:21.965Z,12.50
2022-10-04T18:42:17.230Z,12.51
2022-10-04T18:44:57.270Z,12.50
2022-10-04T18:47:35.419Z,12.51
2022-10-04T18:50:24.275Z,12.52
2022-10-04T18:53:02.920Z,12.51
2022-10-04T18:55:40.994Z,12.52
2022-10-04T18:58:41.314Z,12.54
2022-10-04T19:01:54.856Z,12.54
2022-10-04T19:04:43.007Z,12.54
2022-10-04T19:07:15.453Z,12.55
2022-10-04T19:09:54.049Z,12.56
2022-10-04T19:13:03.808Z,12.56
2022-10-04T19:16:01.924Z,12.57
2022-10-04T19:19:13.761Z,12.57
2022-10-04T19:21:59.848Z,12.57
2022-10-04T19:25:10.705Z,12.57
2022-10-04T19:28:03.058Z,12.57
2022-10-04T19:30:48.508Z,12.57
2022-10-04T19:33:30.356Z,12.60
2022-10-04T19:36:00.583Z,12.61
2022-10-04T19:38:44.385Z,12.63
2022-10-04T19:41:34.765Z,12.63
2022-10-04T19:44:46.314Z,12.61
2022-10-04T19:47:47.309Z,12.62
2022-10-04T19:50:35.734Z,12.63
2022-10-04T19:53:15.181Z,12.64
2022-10-04T19:55:59.105Z,12.63
2022-10-04T19:58:26.809Z,12.64
2022-10-04T20:00:56.850Z,12.62
2022-10-04T20:03:24.526Z,12.61
2022-10-04T20:05:53.720Z,12.60
2022-10-04T20:08:48.344Z,12.59
2022-10-04T20:11:28.689Z,12.59
2022-10-04T20:14:23.399Z,12.59
2022-10-04T20:17:02.958Z,12.59
2022-10-04T20:19:30.283Z,12.59
2022-10-04T20:22:27.799Z,12.56
2022-10-04T20:24:56.383Z,12.56
2022-10-04T20:27:29.742Z,12.56
2022-10-04T20:30:04.995Z,12.56
2022-10-04T20:32:36.967Z,12.57
2022-10-04T20:35:11.543Z,12.57
2022-10-04T20:37:44.529Z,12.56
2022-10-04T20:40:40.383Z,12.57
2022-10-04T20:43:13.660Z,12.56
2022-10-04T20:45:58.698Z,12.55
2022-10-04T20:48:31.488Z,12.55
2022-10-04T20:51:09.599Z,12.54
2022-10-04T20:53:42.676Z,12.53
2022-10-04T20:56:13.831Z,12.51
2022-10-04T20:58:41.293Z,12.52
2022-10-04T21:01:36.491Z,12.51
2022-10-04T21:04:18.132Z,12.50
2022-10-04T21:06:55.217Z,12.51
2022-10-04T21:09:22.186Z,12.51
2022-10-04T21:11:53.135Z,12.52
2022-10-04T21:14:30.733Z,12.50
2022-10-04T21:17:21.410Z,12.49
2022-10-04T21:19:48.142Z,12.48
2022-10-04T21:22:17.954Z,12.46
2022-10-04T21:24:50.588Z,12.45
2022-10-04T21:27:39.774Z,12.44
2022-10-04T21:30:13.563Z,12.44
2022-10-04T21:32:43.494Z,12.44
2022-10-04T21:35:10.337Z,12.45
2022-10-04T21:37:37.045Z,12.43
2022-10-04T21:40:06.602Z,12.46
2022-10-04T21:42:33.461Z,12.45
2022-10-04T21:45:00.176Z,12.45
2022-10-04T21:47:29.546Z,12.45
2022-10-04T21:49:56.231Z,12.45
2022-10-04T21:52:25.546Z,12.44
2022-10-04T21:54:52.372Z,12.43
2022-10-04T21:57:20.765Z,12.44
2022-10-04T21:59:47.378Z,12.45
2022-10-04T22:02:14.232Z,12.44
2022-10-04T22:04:41.995Z,12.44
2022-10-04T22:07:10.564Z,12.43
2022-10-04T22:09:40.003Z,12.42
2022-10-04T22:12:06.698Z,12.42
2022-10-04T22:14:33.402Z,12.39
2022-10-04T22:17:00.093Z,12.38
2022-10-04T22:19:26.748Z,12.36
2022-10-04T22:21:53.518Z,12.33
2022-10-04T22:24:21.066Z,12.33
2022-10-04T22:26:48.397Z,12.30
2022-10-04T22:29:17.481Z,12.30
2022-10-04T22:31:50.982Z,12.29
2022-10-04T22:34:22.850Z,12.30
2022-10-04T22:36:53.426Z,12.28
2022-10-04T22:39:21.038Z,12.27
2022-10-04T22:41:56.047Z,12.25
2022-10-04T22:44:29.587Z,12.22
2022-10-04T22:46:59.909Z,12.23
2022-10-04T22:49:37.396Z,12.22
2022-10-04T22:52:13.199Z,12.22
2022-10-04T22:54:43.438Z,12.22
2022-10-04T22:57:11.630Z,12.22
2022-10-04T22:59:44.206Z,12.22
2022-10-04T23:02:30.452Z,12.22
2022-10-04T23:05:04.348Z,12.21
2022-10-04T23:07:33.769Z,12.21
2022-10-04T23:10:04.454Z,12.22
2022-10-04T23:12:31.069Z,12.21
2022-10-04T23:14:57.682Z,12.17
2022-10-04T23:17:34.346Z,12.17
2022-10-04T23:20:12.685Z,12.14
2022-10-04T23:22:50.782Z,12.13
2022-10-04T23:25:23.457Z,12.13
2022-10-04T23:27:50.319Z,12.12
2022-10-04T23:30:19.733Z,12.10
2022-10-04T23:32:49.286Z,12.09
2022-10-04T23:35:33.829Z,12.08
2022-10-04T23:38:03.656Z,12.08
2022-10-04T23:40:30.260Z,12.07
2022-10-04T23:43:04.479Z,12.07
2022-10-04T23:45:35.412Z,12.07
2022-10-04T23:48:02.218Z,12.06
2022-10-04T23:50:37.657Z,12.06
2022-10-04T23:53:09.986Z,12.08
2022-10-04T23:55:42.155Z,12.09
2022-10-04T23:58:24.061Z,12.11
